Terminal Aerodrome Forecast
Issued by NWS

Home | Current Version | Previous Version | Text Only | Print | Product List | Glossary On
Versions: 1 2 3 4 5 6 7 8 9 10 11 12 13 14 15 16 17
000
FTUS42 KTAE 040522
TAFVLD
TAF
KVLD 040522Z 0406/0506 00000KT P6SM SCT035 BKN070 OVC090
      TEMPO 0409/0413 BKN025
     FM041500 32010G15KT P6SM SCT040
     FM050000 32002KT P6SM SKC=

USA.gov is the U.S. government's official web portal to all federal, state and local government web resources and services.